Archival Weather

Norman Y Mineta San Jose Intl

San Jose, California (KSJC)

Report from: Saturday, February 3, 2024 12:53 PM PST
Current time: Monday, June 24, 2024 2:55 AM PDT

Current weather – Weather history – Daily summaries
Weather forecast

Temperature13.9°C (57.0°F)
Dew point3.9°C (39.0°F)
Winds 10 kts (5.1 m/s, 11.5 mph) Southeast (140°)
Visibility10 mi. (16.1 km)
Clouds Scattered clouds 3,200 ft. (975 m)
Ceiling: Broken clouds 8,000 ft. (2,438 m)
Overcast 12,000 ft. (3,658 m)
Altimeter29.97 in.Hg (1015 mB)
Relative humidity51 %
Density altitude-63 ft. (-19 m)
Sea-level pressure101.5 kPa (1015 mB, 29.97 in.Hg)
Remarks Automated weather observing station with precipitation discriminator
Pressure falling more quickly
Flight conditions Visual Meteorological Conditions
Raw dataKSJC 032053Z 14010KT 10SM SCT032 BKN080 OVC120 14/04 A2997 RMK AO2 SLP148 T01390039 58012
An error has occurred. This application may no longer respond until reloaded. Reload 🗙